| time (UTC) | temp F | wind direction | speed MPH | gust MPH | rain 1hr in | rain 24hr in | rain mn in | humidity % | barometer mb |
| 20260503230820 | 55 | 119 | 4.0 | 10.0 | 0.00 | 0.00 | 0.00 | 48 | 1019.7 |
| 20260503224820 | 56 | 103 | 4.0 | 9.0 | 0.00 | 0.00 | 0.00 | 47 | 1019.7 |
| 20260503222819 | 56 | 117 | 4.0 | 11.0 | 0.00 | 0.00 | 0.00 | 46 | 1020.0 |
| 20260503220819 | 56 | 150 | 4.0 | 15.0 | 0.00 | 0.00 | 0.00 | 46 | 1019.8 |
| 20260503214819 | 56 | 148 | 4.0 | 15.0 | 0.00 | 0.00 | 0.00 | 47 | 1019.7 |
| 20260503212819 | 56 | 122 | 5.0 | 10.0 | 0.00 | 0.00 | 0.00 | 47 | 1019.7 |
| 20260503210819 | 57 | 113 | 4.0 | 10.0 | 0.00 | 0.00 | 0.00 | 47 | 1020.0 |
| 20260503204819 | 58 | 114 | 4.0 | 10.0 | 0.00 | 0.00 | 0.00 | 46 | 1019.9 |
| 20260503202818 | 58 | 82 | 4.0 | 10.0 | 0.00 | 0.00 | 0.00 | 48 | 1020.1 |
| 20260503200818 | 58 | 154 | 3.0 | 11.0 | 0.00 | 0.00 | 0.00 | 50 | 1020.4 |
| 20260503194818 | 58 | 95 | 3.0 | 7.0 | 0.00 | 0.00 | 0.00 | 52 | 1020.3 |
| 20260503192818 | 58 | 125 | 4.0 | 8.0 | 0.00 | 0.00 | 0.00 | 52 | 1020.1 |
| 20260503190818 | 60 | 121 | 3.0 | 8.0 | 0.00 | 0.00 | 0.00 | 50 | 1020.1 |
| 20260503184818 | 60 | 89 | 2.0 | 7.0 | 0.00 | 0.00 | 0.00 | 49 | 1020.2 |
| 20260503182817 | 62 | 110 | 3.0 | 7.0 | 0.00 | 0.00 | 0.00 | 47 | 1020.0 |
| 20260503180817 | 64 | 192 | 3.0 | 8.0 | 0.00 | 0.00 | 0.00 | 44 | 1020.0 |
| 20260503174817 | 65 | 181 | 5.0 | 14.0 | 0.00 | 0.00 | 0.00 | 42 | 1019.7 |
| 20260503172817 | 66 | 176 | 6.0 | 14.0 | 0.00 | 0.00 | 0.00 | 40 | 1019.9 |
| 20260503170817 | 67 | 187 | 7.0 | 15.0 | 0.00 | 0.00 | 0.00 | 40 | 1020.1 |
| 20260503150817 | 69 | 188 | 7.0 | 16.0 | 0.00 | 0.00 | 0.00 | 38 | 1020.5 |
| 20260503130817 | 69 | 198 | 9.0 | 18.0 | 0.00 | 0.00 | 0.00 | 38 | 1021.7 |
| 20260503110817 | 66 | 196 | 8.0 | 21.0 | 0.00 | 0.00 | 0.00 | 41 | 1022.8 |
| 20260503080817 | 61 | 187 | 8.0 | 17.0 | 0.00 | 0.00 | 0.00 | 48 | 1023.5 |
| 20260503072817 | 59 | 205 | 7.0 | 15.0 | 0.00 | 0.00 | 0.00 | 50 | 1023.4 |
| 20260503070817 | 58 | 181 | 7.0 | 19.0 | 0.00 | 0.00 | 0.00 | 51 | 1023.2 |
| 20260503054817 | 54 | 146 | 6.0 | 14.0 | 0.00 | 0.00 | 0.00 | 56 | 1022.6 |
| 20260503052817 | 53 | 149 | 6.0 | 15.0 | 0.00 | 0.00 | 0.00 | 57 | 1022.6 |
| 20260503050817 | 53 | 165 | 6.0 | 13.0 | 0.00 | 0.00 | 0.00 | 58 | 1022.7 |
| 20260503044817 | 51 | 126 | 4.0 | 9.0 | 0.00 | 0.00 | 0.00 | 61 | 1022.7 |
| 20260503042817 | 50 | 116 | 4.0 | 10.0 | 0.00 | 0.00 | 0.00 | 62 | 1022.6 |
| 20260503040817 | 49 | 127 | 4.0 | 9.0 | 0.00 | 0.00 | 0.00 | 62 | 1022.6 |
| 20260503034817 | 49 | 89 | 3.0 | 8.0 | 0.00 | 0.00 | 0.00 | 61 | 1022.5 |
| 20260503032817 | 50 | 74 | 2.0 | 6.0 | 0.00 | 0.00 | 0.00 | 58 | 1022.5 |
| 20260503030817 | 50 | 57 | 1.0 | 4.0 | 0.00 | 0.00 | 0.00 | 57 | 1022.6 |
| 20260503024817 | 51 | 57 | 2.0 | 6.0 | 0.00 | 0.00 | 0.00 | 54 | 1022.4 |
| 20260503022817 | 52 | 47 | 2.0 | 4.0 | 0.00 | 0.00 | 0.00 | 51 | 1022.3 |
| 20260503020817 | 55 | 24 | 1.0 | 6.0 | 0.00 | 0.00 | 0.00 | 47 | 1022.5 |
| 20260503014817 | 55 | 18 | 1.0 | 4.0 | 0.00 | 0.00 | 0.00 | 46 | 1022.2 |
| 20260503012817 | 54 | 46 | 2.0 | 4.0 | 0.00 | 0.00 | 0.00 | 48 | 1022.5 |
| 20260503010817 | 54 | 45 | 2.0 | 3.0 | 0.00 | 0.00 | 0.00 | 48 | 1022.4 |
| 20260503004817 | 54 | 43 | 2.0 | 3.0 | 0.00 | 0.00 | 0.00 | 50 | 1022.6 |
| 20260503002817 | 54 | 31 | 1.0 | 3.0 | 0.00 | 0.00 | 0.00 | 50 | 1022.6 |
| 20260503000817 | 56 | 40 | 2.0 | 4.0 | 0.00 | 0.00 | 0.00 | 45 | 1022.9 |
| 20260502234817 | 57 | 54 | 3.0 | 6.0 | 0.00 | 0.00 | 0.00 | 45 | 1022.6 |
| 20260502232817 | 57 | 57 | 3.0 | 6.0 | 0.00 | 0.00 | 0.00 | 46 | 1023.0 |